createdAt,value
2023-02-23T00:00:32.349Z,101176.76
2023-02-23T00:03:02.060Z,101180.14
2023-02-23T00:05:32.355Z,101186.64
2023-02-23T00:08:02.096Z,101188.11
2023-02-23T00:10:33.839Z,101189.57
2023-02-23T00:13:02.706Z,101194.86
2023-02-23T00:15:32.316Z,101199.80
2023-02-23T00:18:01.140Z,101205.26
2023-02-23T00:20:30.394Z,101208.10
2023-02-23T00:22:59.128Z,101210.93
2023-02-23T00:25:28.110Z,101217.45
2023-02-23T00:27:59.563Z,101222.60
2023-02-23T00:30:28.328Z,101220.02
2023-02-23T00:32:56.788Z,101220.20
2023-02-23T00:35:25.498Z,101223.53
2023-02-23T00:37:58.530Z,101226.48
2023-02-23T00:40:27.879Z,101231.02
2023-02-23T00:42:56.318Z,101232.88
2023-02-23T00:45:27.070Z,101235.81
2023-02-23T00:47:55.455Z,101240.01
2023-02-23T00:50:24.608Z,101241.39
2023-02-23T00:52:53.073Z,101243.28
2023-02-23T00:55:21.488Z,101247.11
2023-02-23T00:57:50.523Z,101247.95
2023-02-23T01:00:21.002Z,101249.88
2023-02-23T01:02:51.404Z,101253.71
2023-02-23T01:05:21.100Z,101258.24
2023-02-23T01:07:51.316Z,101256.83
2023-02-23T01:10:20.030Z,101258.77
2023-02-23T01:12:51.138Z,101263.00
2023-02-23T01:15:20.489Z,101263.85
2023-02-23T01:17:49.025Z,101268.43
2023-02-23T01:20:19.365Z,101274.23
2023-02-23T01:22:49.833Z,101277.46
2023-02-23T01:25:18.626Z,101276.44
2023-02-23T01:27:47.127Z,101277.86
2023-02-23T01:30:15.833Z,101283.34
2023-02-23T01:32:46.134Z,101286.54
2023-02-23T01:35:14.622Z,101292.17
2023-02-23T01:37:43.116Z,101300.26
2023-02-23T01:40:16.747Z,101304.50
2023-02-23T01:42:49.286Z,101304.89
2023-02-23T01:45:26.385Z,101312.84
2023-02-23T01:48:07.333Z,101319.58
2023-02-23T01:50:49.780Z,101321.58
2023-02-23T01:53:18.592Z,101326.34
2023-02-23T01:55:51.484Z,101330.94
2023-02-23T01:58:29.727Z,101337.63
2023-02-23T02:01:02.013Z,101342.23
2023-02-23T02:03:35.525Z,101347.52
2023-02-23T02:06:05.194Z,101352.42
2023-02-23T02:08:34.046Z,101356.87
2023-02-23T02:11:25.997Z,101360.42
2023-02-23T02:14:02.794Z,101363.13
2023-02-23T02:16:35.406Z,101363.89
2023-02-23T02:19:17.077Z,101366.55
2023-02-23T02:22:15.036Z,101369.90
2023-02-23T02:25:25.753Z,101375.35
2023-02-23T02:28:04.645Z,101375.05
2023-02-23T02:30:41.971Z,101381.91
2023-02-23T02:33:35.475Z,101385.81
2023-02-23T02:36:18.819Z,101387.21
2023-02-23T02:39:10.894Z,101386.88
2023-02-23T02:41:51.754Z,101395.45
2023-02-23T02:44:42.348Z,101390.89
2023-02-23T02:47:19.925Z,101391.97
2023-02-23T02:50:24.966Z,101399.87
2023-02-23T02:52:59.548Z,101403.73
2023-02-23T02:55:29.373Z,101412.19
2023-02-23T02:57:59.277Z,101410.15
2023-02-23T03:00:59.993Z,101415.60
2023-02-23T03:03:55.646Z,101413.93
2023-02-23T03:06:49.516Z,101411.41
2023-02-23T03:09:53.071Z,101417.92
2023-02-23T03:12:43.353Z,101420.25
2023-02-23T03:15:51.611Z,101419.77
2023-02-23T03:18:55.716Z,101425.02
2023-02-23T03:21:47.899Z,101427.84
2023-02-23T03:24:51.768Z,101437.47
2023-02-23T03:27:57.980Z,101436.08
2023-02-23T03:31:10.790Z,101439.77
2023-02-23T03:34:03.596Z,101441.34
2023-02-23T03:36:53.385Z,101448.34
2023-02-23T03:39:56.205Z,101449.23
2023-02-23T03:42:45.830Z,101453.26
2023-02-23T03:45:35.736Z,101455.35
2023-02-23T03:48:25.173Z,101457.47
2023-02-23T03:51:15.522Z,101456.27
2023-02-23T03:54:37.295Z,101459.41
2023-02-23T03:57:25.061Z,101463.80
2023-02-23T04:00:16.101Z,101469.96
2023-02-23T04:03:05.838Z,101471.41
2023-02-23T04:05:56.299Z,101477.39
2023-02-23T04:08:50.139Z,101474.98
2023-02-23T04:11:58.791Z,101480.58
2023-02-23T04:14:56.375Z,101482.52
2023-02-23T04:17:27.010Z,101484.27
2023-02-23T04:19:55.513Z,101490.25
2023-02-23T04:22:25.428Z,101491.48
2023-02-23T04:24:53.977Z,101490.45
2023-02-23T04:27:22.418Z,101493.43
2023-02-23T04:29:50.860Z,101493.44
2023-02-23T04:32:23.480Z,101500.43
2023-02-23T04:34:52.096Z,101501.67
2023-02-23T04:37:20.583Z,101503.60
2023-02-23T04:39:50.616Z,101507.96
2023-02-23T04:42:19.094Z,101511.48
2023-02-23T04:44:47.833Z,101512.17
2023-02-23T04:47:16.388Z,101519.66
2023-02-23T04:49:44.848Z,101522.30
2023-02-23T04:52:13.719Z,101528.23
2023-02-23T04:54:43.528Z,101532.42
2023-02-23T04:57:12.226Z,101535.58
2023-02-23T04:59:40.887Z,101543.61
2023-02-23T05:02:10.095Z,101551.29
2023-02-23T05:04:39.233Z,101552.85
2023-02-23T05:07:07.647Z,101558.97
2023-02-23T05:09:36.053Z,101563.31
2023-02-23T05:12:04.850Z,101568.36
2023-02-23T05:14:34.242Z,101571.14
2023-02-23T05:17:03.654Z,101575.83
2023-02-23T05:19:35.606Z,101581.39
2023-02-23T05:22:05.657Z,101581.35
2023-02-23T05:24:34.112Z,101586.39
2023-02-23T05:27:02.516Z,101593.84
2023-02-23T05:29:32.115Z,101599.86
2023-02-23T05:32:01.104Z,101602.04
2023-02-23T05:34:29.961Z,101600.52
2023-02-23T05:36:58.355Z,101601.70
2023-02-23T05:39:26.937Z,101604.81
2023-02-23T05:41:55.670Z,101607.08
2023-02-23T05:44:25.366Z,101608.96
2023-02-23T05:46:54.629Z,101612.25
2023-02-23T05:49:23.212Z,101607.30
2023-02-23T05:51:51.873Z,101604.23
2023-02-23T05:54:20.478Z,101609.73
2023-02-23T05:56:49.401Z,101609.62
2023-02-23T05:59:18.587Z,101613.70
2023-02-23T06:01:47.246Z,101609.71
2023-02-23T06:04:15.690Z,101611.00
2023-02-23T06:06:45.654Z,101613.49
2023-02-23T06:09:19.261Z,101610.27
2023-02-23T06:11:49.816Z,101605.02
2023-02-23T06:14:18.307Z,101606.02
2023-02-23T06:16:51.433Z,101605.42
2023-02-23T06:19:20.324Z,101606.14
2023-02-23T06:21:49.115Z,101607.10
2023-02-23T06:24:18.034Z,101601.58
2023-02-23T06:26:46.882Z,101603.92
2023-02-23T06:29:15.877Z,101602.03
2023-02-23T06:31:44.497Z,101603.27
2023-02-23T06:34:13.793Z,101594.91
2023-02-23T06:36:43.296Z,101592.14
2023-02-23T06:39:13.807Z,101587.21
2023-02-23T06:41:43.946Z,101584.17
2023-02-23T06:44:12.481Z,101581.23
2023-02-23T06:46:41.386Z,101579.36
2023-02-23T06:49:12.018Z,101579.91
2023-02-23T06:51:43.533Z,101573.85
2023-02-23T06:54:12.657Z,101567.72
2023-02-23T06:56:41.534Z,101555.24
2023-02-23T06:59:09.974Z,101548.23
2023-02-23T07:01:38.829Z,101542.51
2023-02-23T07:04:07.853Z,101531.86
2023-02-23T07:06:38.276Z,101526.45
2023-02-23T07:09:07.045Z,101511.45
2023-02-23T07:11:35.609Z,101496.48
2023-02-23T07:14:04.104Z,101483.74
2023-02-23T07:16:32.632Z,101469.55
2023-02-23T07:19:01.225Z,101456.03
2023-02-23T07:21:32.337Z,101449.40
2023-02-23T07:24:01.280Z,101438.75
2023-02-23T07:26:29.892Z,101428.33
2023-02-23T07:28:58.342Z,101415.52
2023-02-23T07:31:26.961Z,101406.89
2023-02-23T07:33:56.402Z,101395.63
2023-02-23T07:36:24.902Z,101380.54
2023-02-23T07:38:55.797Z,101369.06
2023-02-23T07:41:24.325Z,101354.81
2023-02-23T07:43:52.833Z,101347.42
2023-02-23T07:46:21.377Z,101340.23
2023-02-23T07:48:50.259Z,101332.48
2023-02-23T07:51:19.781Z,101325.11
2023-02-23T07:53:49.753Z,101332.45
2023-02-23T07:56:18.214Z,101324.48
2023-02-23T07:58:48.899Z,101304.09
2023-02-23T08:01:17.821Z,101286.08
2023-02-23T08:03:49.892Z,101272.52
2023-02-23T08:06:19.668Z,101269.82
2023-02-23T08:08:48.883Z,101258.06
2023-02-23T08:11:20.739Z,101240.38
2023-02-23T08:13:50.637Z,101219.02
2023-02-23T08:16:19.652Z,101197.70
2023-02-23T08:18:48.266Z,101184.98
2023-02-23T08:21:17.272Z,101171.65
2023-02-23T08:23:45.898Z,101144.67
2023-02-23T08:26:16.645Z,101121.52
2023-02-23T08:28:46.824Z,101098.74
2023-02-23T08:31:16.547Z,101073.55
2023-02-23T08:33:46.124Z,101054.83
2023-02-23T08:36:14.550Z,101050.94
2023-02-23T08:38:43.059Z,101039.67
2023-02-23T08:41:11.604Z,101018.27
2023-02-23T08:43:44.122Z,101016.13
2023-02-23T08:46:13.123Z,101011.13
2023-02-23T08:49:15.074Z,100995.17
2023-02-23T08:51:46.176Z,100961.98
2023-02-23T08:54:16.489Z,100935.13
2023-02-23T08:56:45.736Z,100907.64
2023-02-23T08:59:14.652Z,100894.37
2023-02-23T09:01:44.060Z,100886.13
2023-02-23T09:04:13.390Z,100870.80
2023-02-23T09:06:41.861Z,100846.80
2023-02-23T09:09:10.710Z,100830.64
2023-02-23T09:11:39.293Z,100796.17
2023-02-23T09:14:08.945Z,100781.70
2023-02-23T09:16:37.579Z,100784.41
2023-02-23T09:19:10.085Z,100785.54
2023-02-23T09:21:38.838Z,100760.13
2023-02-23T09:24:07.732Z,100726.79
2023-02-23T09:26:40.225Z,100707.41
2023-02-23T09:29:08.890Z,100694.77
2023-02-23T09:31:38.974Z,100686.27
2023-02-23T09:34:09.639Z,100681.03
2023-02-23T09:36:40.685Z,100684.77
2023-02-23T09:39:09.498Z,100669.37
2023-02-23T09:41:47.166Z,100661.80
2023-02-23T09:44:42.166Z,100651.69
2023-02-23T09:47:18.904Z,100645.60
2023-02-23T09:49:48.962Z,100650.44
2023-02-23T09:52:24.324Z,100636.75
2023-02-23T09:54:52.777Z,100606.14
2023-02-23T09:57:29.835Z,100599.43
2023-02-23T09:59:59.782Z,100578.83
2023-02-23T10:02:51.510Z,100570.31
2023-02-23T10:05:20.001Z,100565.96
2023-02-23T10:07:52.807Z,100567.45
2023-02-23T10:10:41.490Z,100568.23
2023-02-23T10:13:46.469Z,100569.52
2023-02-23T10:16:38.232Z,100567.23
2023-02-23T10:19:11.057Z,100570.58
2023-02-23T10:21:43.884Z,100561.80
2023-02-23T10:24:46.060Z,100563.29
2023-02-23T10:28:28.827Z,100551.80
2023-02-23T10:31:19.764Z,100548.46
2023-02-23T10:33:51.720Z,100551.11
2023-02-23T10:36:46.315Z,100545.45
2023-02-23T10:39:15.069Z,100546.66
2023-02-23T10:41:43.975Z,100545.05
2023-02-23T10:44:25.417Z,100537.05
2023-02-23T10:47:20.306Z,100539.76
2023-02-23T10:49:51.385Z,100534.61
2023-02-23T10:52:23.163Z,100530.90
2023-02-23T10:54:52.098Z,100527.44
2023-02-23T10:57:33.570Z,100520.30
2023-02-23T11:00:28.748Z,100526.30
2023-02-23T11:02:58.832Z,100529.30
2023-02-23T11:05:28.816Z,100531.48
2023-02-23T11:08:37.518Z,100532.00
2023-02-23T11:11:16.100Z,100533.84
2023-02-23T11:13:46.812Z,100539.38
2023-02-23T11:16:19.932Z,100544.73
2023-02-23T11:18:58.795Z,100550.14
2023-02-23T11:21:34.189Z,100556.59
2023-02-23T11:24:43.273Z,100563.05
2023-02-23T11:27:23.486Z,100569.95
2023-02-23T11:29:56.239Z,100570.41
2023-02-23T11:32:29.030Z,100568.71
2023-02-23T11:35:17.539Z,100561.66
2023-02-23T11:37:46.558Z,100557.56
2023-02-23T11:40:35.030Z,100552.99
2023-02-23T11:43:07.603Z,100554.64
2023-02-23T11:46:01.093Z,100546.98
2023-02-23T11:48:43.383Z,100543.67
2023-02-23T11:51:13.601Z,100539.75
2023-02-23T11:53:45.773Z,100538.59
2023-02-23T11:56:14.747Z,100542.14
2023-02-23T11:58:45.300Z,100535.71
2023-02-23T12:01:21.502Z,100534.38
2023-02-23T12:03:57.555Z,100533.55
2023-02-23T12:06:31.069Z,100534.67
2023-02-23T12:09:13.222Z,100538.36
2023-02-23T12:11:45.701Z,100535.71
2023-02-23T12:14:41.636Z,100539.92
2023-02-23T12:17:28.144Z,100541.13
2023-02-23T12:20:02.903Z,100545.13
2023-02-23T12:22:40.076Z,100551.14
2023-02-23T12:25:32.464Z,100552.50
2023-02-23T12:28:28.369Z,100553.16
2023-02-23T12:31:05.090Z,100553.17
2023-02-23T12:33:42.481Z,100557.67
2023-02-23T12:36:35.680Z,100559.01
2023-02-23T12:39:33.340Z,100554.27
2023-02-23T12:42:08.156Z,100553.03
2023-02-23T12:45:04.284Z,100549.30
2023-02-23T12:47:36.872Z,100549.17
2023-02-23T12:50:13.578Z,100547.00
2023-02-23T12:53:01.825Z,100552.52
2023-02-23T12:55:41.793Z,100554.14
2023-02-23T12:58:21.552Z,100550.58
2023-02-23T13:01:00.044Z,100551.24
2023-02-23T13:04:12.774Z,100550.07
2023-02-23T13:07:21.057Z,100554.21
2023-02-23T13:10:31.230Z,100558.80
2023-02-23T13:13:11.897Z,100556.76
2023-02-23T13:16:33.658Z,100559.46
2023-02-23T13:19:39.093Z,100559.13
2023-02-23T13:22:30.521Z,100552.29
2023-02-23T13:25:04.616Z,100552.98
2023-02-23T13:27:46.595Z,100551.52
2023-02-23T13:30:21.456Z,100543.05
2023-02-23T13:32:50.667Z,100530.52
2023-02-23T13:35:21.936Z,100522.09
2023-02-23T13:37:53.530Z,100516.11
2023-02-23T13:40:47.194Z,100513.82
2023-02-23T13:43:30.197Z,100514.80
2023-02-23T13:46:27.807Z,100523.80
2023-02-23T13:49:09.131Z,100536.59
2023-02-23T13:51:39.418Z,100553.02
2023-02-23T13:54:32.170Z,100551.89
2023-02-23T13:57:02.602Z,100552.37
2023-02-23T13:59:37.232Z,100568.63
2023-02-23T14:02:33.628Z,100579.31
2023-02-23T14:05:21.313Z,100577.28
2023-02-23T14:07:55.489Z,100584.48
2023-02-23T14:10:48.835Z,100590.80
2023-02-23T14:13:18.467Z,100597.11
2023-02-23T14:16:11.686Z,100598.30
2023-02-23T14:19:12.081Z,100602.92
2023-02-23T14:21:56.479Z,100614.44
2023-02-23T14:24:26.477Z,100626.59
2023-02-23T14:27:04.882Z,100631.02
2023-02-23T14:29:59.382Z,100636.27
2023-02-23T14:32:29.371Z,100644.18
2023-02-23T14:34:59.682Z,100654.48
2023-02-23T14:37:34.650Z,100657.91
2023-02-23T14:40:15.247Z,100665.55
2023-02-23T14:42:51.986Z,100675.95
2023-02-23T14:45:29.058Z,100684.89
2023-02-23T14:48:07.084Z,100689.27
2023-02-23T14:50:36.700Z,100697.83
2023-02-23T14:53:10.364Z,100709.38
2023-02-23T14:55:42.228Z,100718.00
2023-02-23T14:58:23.497Z,100724.04
2023-02-23T15:00:52.459Z,100734.77
2023-02-23T15:03:22.698Z,100745.89
2023-02-23T15:05:55.598Z,100757.90
2023-02-23T15:08:29.232Z,100775.61
2023-02-23T15:11:08.620Z,100791.76
2023-02-23T15:13:49.155Z,100806.67
2023-02-23T15:16:36.064Z,100814.22
2023-02-23T15:19:08.095Z,100825.45
2023-02-23T15:21:40.168Z,100838.23
2023-02-23T15:24:13.664Z,100854.67
2023-02-23T15:26:43.950Z,100861.95
2023-02-23T15:29:25.915Z,100874.55
2023-02-23T15:31:55.695Z,100889.28
2023-02-23T15:34:30.974Z,100908.91
2023-02-23T15:37:05.887Z,100920.77
2023-02-23T15:40:02.917Z,100942.66
2023-02-23T15:42:38.220Z,100960.30
2023-02-23T15:45:36.473Z,100973.54
2023-02-23T15:48:18.777Z,100992.70
2023-02-23T15:50:51.205Z,101002.20
2023-02-23T15:53:27.725Z,101010.12
2023-02-23T15:56:10.295Z,101022.06
2023-02-23T15:58:51.044Z,101034.92
2023-02-23T16:01:31.236Z,101044.80
2023-02-23T16:04:08.117Z,101053.79
2023-02-23T16:06:38.946Z,101062.97
2023-02-23T16:09:24.263Z,101072.15
2023-02-23T16:11:53.184Z,101081.67
2023-02-23T16:14:24.417Z,101087.81
2023-02-23T16:17:09.906Z,101094.98
2023-02-23T16:19:41.891Z,101099.36
2023-02-23T16:22:32.079Z,101101.27
2023-02-23T16:25:05.580Z,101112.97
2023-02-23T16:27:34.003Z,101122.17
2023-02-23T16:30:23.627Z,101132.23
2023-02-23T16:33:08.019Z,101144.77
2023-02-23T16:35:45.634Z,101153.94
2023-02-23T16:38:34.043Z,101161.56
2023-02-23T16:41:04.559Z,101171.61
2023-02-23T16:43:35.237Z,101184.61
2023-02-23T16:46:03.860Z,101194.12
2023-02-23T16:48:32.874Z,101201.88
2023-02-23T16:51:01.763Z,101203.60
2023-02-23T16:53:30.343Z,101211.50
2023-02-23T16:56:01.210Z,101214.11
2023-02-23T16:58:31.817Z,101221.94
2023-02-23T17:01:02.815Z,101228.00
2023-02-23T17:03:34.210Z,101236.02
2023-02-23T17:06:09.746Z,101238.04
2023-02-23T17:08:43.416Z,101241.30
2023-02-23T17:11:14.600Z,101248.25
2023-02-23T17:13:44.821Z,101251.29
2023-02-23T17:16:13.607Z,101258.33
2023-02-23T17:18:43.080Z,101264.71
2023-02-23T17:21:13.944Z,101271.96
2023-02-23T17:23:51.450Z,101273.40
2023-02-23T17:26:24.724Z,101278.89
2023-02-23T17:28:54.231Z,101282.06
2023-02-23T17:31:25.740Z,101288.58
2023-02-23T17:33:56.113Z,101295.07
2023-02-23T17:36:27.758Z,101298.05
2023-02-23T17:38:58.881Z,101302.21
2023-02-23T17:41:27.686Z,101307.42
2023-02-23T17:43:57.303Z,101315.14
2023-02-23T17:46:26.072Z,101319.34
2023-02-23T17:48:56.203Z,101330.59
2023-02-23T17:51:25.108Z,101338.48
2023-02-23T17:53:54.394Z,101347.93
2023-02-23T17:56:24.418Z,101357.96
2023-02-23T17:58:53.403Z,101363.98
2023-02-23T18:01:22.273Z,101374.17
2023-02-23T18:03:51.488Z,101389.30
2023-02-23T18:06:20.280Z,101394.09
2023-02-23T18:08:49.577Z,101397.48
2023-02-23T18:11:20.109Z,101406.27
2023-02-23T18:13:51.524Z,101409.98
2023-02-23T18:16:20.842Z,101416.34
2023-02-23T18:18:49.649Z,101417.56
2023-02-23T18:21:20.526Z,101421.54
2023-02-23T18:23:50.216Z,101424.54
2023-02-23T18:26:20.740Z,101426.48
2023-02-23T18:28:49.917Z,101431.91
2023-02-23T18:31:23.509Z,101433.72
2023-02-23T18:33:55.078Z,101436.05
2023-02-23T18:36:29.288Z,101442.54
2023-02-23T18:38:59.537Z,101449.19
2023-02-23T18:41:31.130Z,101460.93
2023-02-23T18:44:01.726Z,101468.51
2023-02-23T18:46:33.578Z,101470.66
2023-02-23T18:49:03.983Z,101477.80
2023-02-23T18:51:33.389Z,101482.45
2023-02-23T18:54:03.712Z,101493.07
2023-02-23T18:56:32.297Z,101496.31
2023-02-23T18:59:01.999Z,101507.42
2023-02-23T19:01:33.539Z,101508.75
2023-02-23T19:04:02.573Z,101509.02
2023-02-23T19:06:32.166Z,101515.59
2023-02-23T19:09:04.524Z,101525.29
2023-02-23T19:11:34.340Z,101528.51
2023-02-23T19:14:09.585Z,101535.56
2023-02-23T19:16:38.516Z,101542.28
2023-02-23T19:19:08.123Z,101550.04
2023-02-23T19:21:38.713Z,101557.42
2023-02-23T19:24:08.122Z,101565.00
2023-02-23T19:26:37.609Z,101575.04
2023-02-23T19:29:06.503Z,101585.56
2023-02-23T19:31:37.083Z,101596.26
2023-02-23T19:34:09.094Z,101606.08
2023-02-23T19:36:38.087Z,101612.90
2023-02-23T19:39:11.385Z,101617.98
2023-02-23T19:41:40.999Z,101619.04
2023-02-23T19:44:10.699Z,101615.35
2023-02-23T19:46:43.277Z,101619.74
2023-02-23T19:49:12.125Z,101625.91
2023-02-23T19:51:41.479Z,101633.42
2023-02-23T19:54:10.664Z,101644.11
2023-02-23T19:56:39.862Z,101649.02
2023-02-23T19:59:08.860Z,101643.55
2023-02-23T20:01:38.072Z,101643.56
2023-02-23T20:04:08.584Z,101654.42
2023-02-23T20:06:45.098Z,101661.98
2023-02-23T20:09:14.453Z,101661.27
2023-02-23T20:11:49.592Z,101659.84
2023-02-23T20:14:18.884Z,101665.96
2023-02-23T20:16:48.776Z,101665.92
2023-02-23T20:19:18.202Z,101670.79
2023-02-23T20:21:47.744Z,101662.70
2023-02-23T20:24:25.917Z,101667.92
2023-02-23T20:26:58.391Z,101666.64
2023-02-23T20:29:28.508Z,101668.19
2023-02-23T20:31:58.368Z,101664.49
2023-02-23T20:34:27.113Z,101662.03
2023-02-23T20:36:56.101Z,101666.58
2023-02-23T20:39:25.094Z,101671.11
2023-02-23T20:41:55.325Z,101677.58
2023-02-23T20:44:24.507Z,101679.64
2023-02-23T20:46:53.406Z,101690.84
2023-02-23T20:49:24.549Z,101697.47
2023-02-23T20:51:54.569Z,101706.39
2023-02-23T20:54:23.985Z,101707.94
2023-02-23T20:56:59.202Z,101712.98
2023-02-23T20:59:32.606Z,101717.89
2023-02-23T21:02:02.623Z,101718.55
2023-02-23T21:04:32.336Z,101730.30
2023-02-23T21:07:01.439Z,101728.05
2023-02-23T21:09:31.141Z,101729.81
2023-02-23T21:11:59.960Z,101729.66
2023-02-23T21:14:30.048Z,101731.77
2023-02-23T21:16:58.966Z,101737.05
2023-02-23T21:19:27.625Z,101742.68
2023-02-23T21:21:58.465Z,101745.86
2023-02-23T21:24:27.146Z,101744.81
2023-02-23T21:26:55.734Z,101747.30
2023-02-23T21:29:24.722Z,101748.56
2023-02-23T21:31:54.322Z,101751.77
2023-02-23T21:34:23.017Z,101754.77
2023-02-23T21:36:52.938Z,101760.41
2023-02-23T21:39:23.065Z,101760.25
2023-02-23T21:41:52.453Z,101759.21
2023-02-23T21:44:21.140Z,101767.30
2023-02-23T21:46:51.818Z,101760.67
2023-02-23T21:49:20.773Z,101765.41
2023-02-23T21:51:52.477Z,101756.84
2023-02-23T21:54:21.820Z,101763.88
2023-02-23T21:56:50.500Z,101768.98
2023-02-23T21:59:20.319Z,101775.65
2023-02-23T22:01:49.050Z,101772.86
2023-02-23T22:04:17.999Z,101765.87
2023-02-23T22:06:46.678Z,101772.20
2023-02-23T22:09:16.098Z,101766.24
2023-02-23T22:11:46.650Z,101766.27
2023-02-23T22:14:17.108Z,101761.55
2023-02-23T22:16:46.746Z,101771.70
2023-02-23T22:19:16.759Z,101778.68
2023-02-23T22:21:48.065Z,101782.00
2023-02-23T22:24:17.106Z,101779.71
2023-02-23T22:26:55.433Z,101780.23
2023-02-23T22:29:25.448Z,101775.67
2023-02-23T22:31:54.067Z,101785.14
2023-02-23T22:34:23.110Z,101794.61
2023-02-23T22:36:54.866Z,101791.45
2023-02-23T22:39:23.756Z,101785.50
2023-02-23T22:41:52.243Z,101783.77
2023-02-23T22:44:23.279Z,101786.58
2023-02-23T22:46:53.369Z,101782.91
2023-02-23T22:49:21.983Z,101786.41
2023-02-23T22:51:50.885Z,101782.90
2023-02-23T22:54:24.167Z,101782.55
2023-02-23T22:56:52.753Z,101786.06
2023-02-23T22:59:21.337Z,101786.41
2023-02-23T23:01:56.772Z,101789.39
2023-02-23T23:04:26.159Z,101789.73
2023-02-23T23:06:54.759Z,101792.54
2023-02-23T23:09:23.546Z,101793.09
2023-02-23T23:11:52.330Z,101794.30
2023-02-23T23:14:24.600Z,101798.86
2023-02-23T23:16:53.619Z,101797.46
2023-02-23T23:19:26.271Z,101792.38
2023-02-23T23:21:55.998Z,101793.23
2023-02-23T23:24:27.536Z,101789.77
2023-02-23T23:27:00.479Z,101799.05
2023-02-23T23:29:32.737Z,101796.23
2023-02-23T23:32:04.963Z,101792.38
2023-02-23T23:34:34.671Z,101793.94
2023-02-23T23:37:04.689Z,101789.54
2023-02-23T23:39:33.792Z,101790.25
2023-02-23T23:42:05.957Z,101789.92
2023-02-23T23:44:34.945Z,101785.20
2023-02-23T23:47:05.678Z,101774.52
2023-02-23T23:49:38.979Z,101769.59
2023-02-23T23:52:08.682Z,101768.73
2023-02-23T23:54:39.482Z,101764.16
2023-02-23T23:57:08.321Z,101761.38
2023-02-23T23:59:46.434Z,101765.76
